OSY weather

Namsos Høknesøra Airport
Namsos, Nord-Trøndelag, Norway

Public forecast

Using degrees Celsius for public forecast. Weather courtesy of forecast.io.

Current aviation weather report (METAR) for Namsos Høknesøra Airport

Retrieved 2020/06/03 10:20 UTC (17 minutes ago):

ENNM 031020Z 33005KT 290V020 9999 BKN020 12/07 Q1013

Closest aviation forecast (TAF) to Namsos Høknesøra Airport

Closest forecast is Trondheim Airport Værnes, 63.3 nm (117.2 km) SSW. Retrieved 2020/06/03 06:57 UTC (4 hours ago):

TAF ENVA 030500Z 0306/0406 VRB07KT 9999 -SHRA SCT012TCU BKN018 PROB40 0306/0314 BKN014 PROB40 TEMPO 0314/0401 4000 TSRA BKN012CB